Latest Weather Observations for Newcastle Nobbys

IDN60801

Issued at 8:52 pm EDT Friday 18 January 2019 (issued every 10 minutes, with the page automatically refreshed every 10 minutes)

About weather observations | Map of weather stations | Latest weather observations for NSW | Other Formats
Station Details ID: 061055 Name: NEWCASTLE NOBBYS SIGNAL STATION AWS Lat: -32.92 Lon: 151.80 Height: 33.0 m
Data from the previous 72 hours. | See also: Recent months at Newcastle Nobbys
Date/Time
EDT
Temp
°C
App
Temp
°C
Dew
Point
°C
Rel
Hum
%
Delta-T
°C
Wind Press
QNH
hPa
Press
MSL
hPa
Rain since
9am
mm
Dir  Spd
km/h
Gust
km/h
Spd
kts
Gust
kts
18/08:30pm 27.1 27.7 20.2 66 4.5 ENE 17 22 9 12 - - 0.0
18/08:00pm 26.9 27.1 20.5 68 4.2 ENE 20 28 11 15 - - 0.0
18/07:30pm 27.3 26.9 20.9 68 4.2 ENE 24 35 13 19 - - 0.0
18/07:00pm 25.2 24.8 20.9 77 2.8 ENE 24 30 13 16 - - 0.0
18/06:30pm 24.9 24.1 20.8 78 2.7 ENE 26 32 14 17 - - 0.0
18/06:00pm 25.1 23.9 20.8 77 2.8 ENE 28 32 15 17 - - 0.0
18/05:30pm 25.3 24.1 20.8 76 3.0 ENE 28 33 15 18 - - 0.0
18/05:00pm 25.3 23.9 20.5 75 3.1 ENE 28 33 15 18 - - 0.0
18/04:30pm 25.6 24.8 20.8 75 3.2 ENE 26 32 14 17 - - 0.0
18/04:00pm 25.5 24.5 20.5 74 3.3 ENE 26 32 14 17 - - 0.0
18/03:30pm 25.6 24.7 20.6 74 3.3 ENE 26 33 14 18 - - 0.0
18/03:00pm 25.6 24.7 20.6 74 3.3 ENE 26 32 14 17 - - 0.0
18/02:30pm 25.1 24.8 20.4 75 3.1 E 22 28 12 15 - - 0.0
18/02:00pm 25.1 24.5 20.4 75 3.1 ENE 24 30 13 16 - - 0.0
18/01:30pm 24.8 25.1 20.5 77 2.8 ENE 19 26 10 14 - - 0.0
18/01:00pm 24.4 24.7 20.5 79 2.5 E 19 24 10 13 - - 0.0
18/12:30pm 24.7 25.6 20.8 79 2.6 E 17 22 9 12 - - 0.0
18/12:00pm 24.6 25.9 20.9 80 2.4 E 15 19 8 10 - - 0.0
18/11:30am 24.6 25.6 21.1 81 2.3 E 17 19 9 10 - - 0.0
18/11:00am 24.4 26.1 20.9 81 2.3 ESE 13 17 7 9 - - 0.0
18/10:30am 24.5 26.3 20.4 78 2.7 ESE 11 13 6 7 - - 0.0
18/10:00am 25.8 28.6 21.5 77 2.9 E 9 11 5 6 - - 0.0
18/09:30am 24.8 27.2 20.9 79 2.6 ESE 9 11 5 6 - - 0.0
18/09:00am 23.7 26.7 21.2 86 1.6 SE 7 7 4 4 - - 0.6
18/08:30am 23.2 25.8 20.5 85 1.8 SSE 7 9 4 5 - - 0.6
18/08:00am 22.5 24.7 20.4 88 1.4 S 9 11 5 6 - - 0.6
18/07:30am 21.7 24.2 20.3 92 0.9 SSW 7 13 4 7 - - 0.6
18/07:00am 21.1 23.6 20.3 95 0.5 SSW 7 11 4 6 - - 0.6
18/06:30am 20.7 23.6 19.9 95 0.5 SSW 4 7 2 4 - - 0.6
18/06:00am 20.7 23.5 19.7 94 0.6 SSE 4 6 2 3 - - 0.6
18/05:30am 21.0 24.0 20.0 94 0.6 WSW 4 7 2 4 - - 0.6
18/05:00am 21.0 22.2 20.0 94 0.6 E 13 17 7 9 - - 0.6
18/04:30am 21.3 20.8 19.9 92 0.9 SE 22 24 12 13 - - 0.6
18/04:00am 21.7 22.2 20.0 90 1.1 SSE 17 17 9 9 - - 0.6
18/03:30am 21.8 23.0 19.9 89 1.2 S 13 17 7 9 - - 0.6
18/03:00am 22.1 24.3 19.5 85 1.7 SSW 7 11 4 6 - - 0.6
18/02:30am 22.4 22.8 19.8 85 1.7 NE 17 22 9 12 - - 0.6
18/02:00am 22.5 23.3 19.9 85 1.7 ENE 15 24 8 13 - - 0.6
18/01:30am 22.7 22.8 19.9 84 1.8 ENE 19 26 10 14 - - 0.6
18/01:00am 22.7 22.8 20.0 85 1.7 ENE 19 26 10 14 - - 0.6
18/12:30am 22.8 23.4 20.3 86 1.6 ENE 17 24 9 13 - - 0.6
18/12:00am 22.9 23.2 20.4 86 1.6 ENE 19 22 10 12 - - 0.6
 
Date/Time
EDT
Temp
°C
App
Temp
°C
Dew
Point
°C
Rel
Hum
%
Delta-T
°C
Wind Press
QNH
hPa
Press
MSL
hPa
Rain since
9am
mm
Dir  Spd
km/h
Gust
km/h
Spd
kts
Gust
kts
17/11:30pm 23.0 24.4 20.3 85 1.7 ENE 13 20 7 11 - - 0.6
17/11:00pm 23.1 24.2 20.4 85 1.8 ENE 15 19 8 10 - - 0.6
17/10:30pm 23.1 24.2 20.4 85 1.8 ENE 15 19 8 10 - - 0.6
17/10:00pm 23.4 25.3 20.5 84 1.9 ENE 11 17 6 9 - - 0.6
17/09:30pm 23.6 24.6 20.3 82 2.1 ENE 15 20 8 11 - - 0.6
17/09:00pm 23.8 24.9 20.5 82 2.1 ENE 15 22 8 12 - - 0.6
17/08:30pm 23.9 24.4 20.8 83 2.0 ENE 19 26 10 14 - - 0.6
17/08:00pm 23.5 23.9 20.6 84 1.9 ENE 19 24 10 13 - - 0.6
17/07:30pm 23.4 23.6 20.5 84 1.9 ENE 20 24 11 13 - - 0.6
17/07:00pm 23.5 22.9 20.4 83 2.0 ENE 24 30 13 16 - - 0.6
17/06:30pm 23.8 22.3 20.3 81 2.3 ENE 28 32 15 17 - - 0.6
17/06:00pm 23.7 22.6 20.2 81 2.3 E 26 32 14 17 - - 0.0
17/05:30pm 24.0 22.8 20.1 79 2.5 E 26 32 14 17 - - 0.0
17/05:00pm 24.5 23.1 20.4 78 2.7 ENE 28 32 15 17 - - 0.0
17/04:30pm 24.7 22.8 20.2 76 2.9 ENE 30 35 16 19 - - 0.0
17/04:00pm 24.9 22.9 19.9 74 3.2 ENE 30 35 16 19 - - 0.0
17/03:30pm 25.2 23.3 20.2 74 3.3 ENE 30 35 16 19 - - 0.0
17/03:00pm 25.2 22.9 20.2 74 3.3 E 32 37 17 20 - - 0.0
17/02:30pm 25.2 24.1 20.2 74 3.3 E 26 33 14 18 - - 0.0
17/02:00pm 25.4 25.1 20.4 74 3.3 E 22 30 12 16 - - 0.0
17/01:30pm 26.0 26.2 20.6 72 3.5 ENE 20 26 11 14 - - 0.0
17/01:00pm 25.9 26.3 20.7 73 3.4 ENE 19 24 10 13 - - 0.0
17/12:30pm 25.7 27.3 20.7 74 3.3 E 13 20 7 11 - - 0.0
17/12:00pm 26.2 28.4 21.2 74 3.3 E 11 15 6 8 - - 0.0
17/11:30am 26.1 27.2 20.4 71 3.7 E 15 17 8 9 - - 0.0
17/11:00am 27.3 29.9 22.0 73 3.6 ESE 11 13 6 7 - - 0.0
17/10:30am 25.8 28.7 21.0 75 3.2 ESE 7 9 4 5 - - 0.0
17/10:00am 25.4 28.7 21.5 79 2.6 ESE 6 7 3 4 - - 0.0
17/09:30am 25.1 28.5 21.6 81 2.3 E 6 7 3 4 - - 0.0
17/09:00am 23.8 26.8 20.9 84 1.9 ESE 6 6 3 3 - - 0.0
17/08:30am 23.3 26.5 21.2 88 1.4 SSE 6 7 3 4 - - 0.0
17/08:00am 22.7 24.8 21.7 94 0.7 S 13 13 7 7 - - 0.0
17/07:30am 22.2 24.6 21.5 96 0.5 S 11 13 6 7 - - 0.0
17/07:00am 21.9 24.7 21.6 98 0.2 SSW 9 13 5 7 - - 0.0
17/06:30am 21.5 23.8 21.3 99 0.1 SSW 11 15 6 8 - - 0.0
17/06:00am 21.4 23.6 21.1 98 0.2 SSW 11 15 6 8 - - 0.0
17/05:30am 21.6 24.3 21.3 98 0.2 S 9 11 5 6 - - 0.0
17/05:00am 21.6 24.3 21.3 98 0.2 S 9 11 5 6 - - 0.0
17/04:30am 21.7 23.2 21.2 97 0.3 SSW 15 19 8 10 - - 0.0
17/04:00am 22.0 24.3 21.3 96 0.5 S 11 13 6 7 - - 0.0
17/03:30am 22.1 25.4 21.4 96 0.5 SSE 6 7 3 4 - - 0.0
17/03:00am 21.9 24.4 21.1 95 0.5 S 9 11 5 6 - - 0.0
17/02:30am 22.4 26.0 21.2 93 0.8 SW 4 6 2 3 - - 0.0
17/02:00am 22.4 26.3 21.2 93 0.8 SE 2 4 1 2 - - 0.0
17/01:30am 22.1 25.0 21.1 94 0.7 E 7 9 4 5 - - 0.0
17/01:00am 22.1 24.3 21.1 94 0.7 ESE 11 13 6 7 - - 0.0
17/12:30am 22.3 24.5 21.1 93 0.8 ENE 11 15 6 8 - - 0.0
17/12:00am 22.5 24.4 21.3 93 0.8 ENE 13 17 7 9 - - 0.0
 
Date/Time
EDT
Temp
°C
App
Temp
°C
Dew
Point
°C
Rel
Hum
%
Delta-T
°C
Wind Press
QNH
hPa
Press
MSL
hPa
Rain since
9am
mm
Dir  Spd
km/h
Gust
km/h
Spd
kts
Gust
kts
16/11:30pm 22.4 24.1 21.0 92 0.9 ENE 13 19 7 10 - - 0.0
16/11:00pm 22.6 24.8 21.1 91 1.0 ENE 11 15 6 8 - - 0.0
16/10:30pm 22.9 24.7 21.2 90 1.1 E 13 17 7 9 - - 0.0
16/10:00pm 23.0 25.3 21.3 90 1.1 ENE 11 17 6 9 - - 0.0
16/09:30pm 23.1 24.9 21.2 89 1.2 ENE 13 19 7 10 - - 0.0
16/09:00pm 23.1 23.5 21.0 88 1.4 ENE 20 30 11 16 - - 0.0
16/08:30pm 23.3 23.7 21.0 87 1.5 ENE 20 26 11 14 - - 0.0
16/08:00pm 23.3 23.2 20.8 86 1.6 E 22 28 12 15 - - 0.0
16/07:30pm 23.6 23.5 20.7 84 1.9 E 22 26 12 14 - - 0.0
16/07:00pm 24.1 25.0 20.8 82 2.2 E 17 20 9 11 - - 0.0
16/06:30pm 24.3 25.6 20.8 81 2.3 E 15 20 8 11 - - 0.0
16/06:00pm 24.8 25.3 20.9 79 2.6 ENE 19 24 10 13 - - 0.0
16/05:30pm 24.9 25.3 21.0 79 2.6 ENE 20 26 11 14 - - 0.0
16/05:00pm 24.6 24.2 20.9 80 2.4 ENE 24 30 13 16 - - 0.0
16/04:30pm 24.8 24.5 21.1 80 2.4 ENE 24 28 13 15 - - 0.0
16/04:00pm 25.1 25.7 21.4 80 2.5 ENE 20 26 11 14 - - 0.0
16/03:30pm 25.1 25.9 21.4 80 2.5 E 19 24 10 13 - - 0.0
16/03:00pm 25.1 26.3 21.4 80 2.5 E 17 22 9 12 - - 0.0
16/02:30pm 25.0 25.6 21.3 80 2.4 E 20 24 11 13 - - 0.0
16/02:00pm 25.1 25.9 21.4 80 2.5 E 19 22 10 12 - - 0.0
16/01:30pm 24.9 26.0 21.2 80 2.4 ESE 17 19 9 10 - - 0.0
16/01:00pm 24.8 25.9 21.3 81 2.3 ESE 17 19 9 10 - - 0.0
16/12:30pm 25.1 26.9 21.2 79 2.6 ESE 13 15 7 8 - - 0.0
16/12:00pm 25.2 27.4 21.1 78 2.7 E 11 13 6 7 - - 0.0
16/11:30am 26.0 27.9 21.4 76 3.1 E 13 17 7 9 - - 0.0
16/11:00am 26.1 28.1 21.5 76 3.1 E 13 15 7 8 - - 0.0
16/10:30am 25.9 28.3 21.6 77 2.9 E 11 13 6 7 - - 0.0
16/10:00am 25.1 27.6 21.0 78 2.7 ESE 9 11 5 6 - - 0.0
16/09:30am 25.1 27.1 20.8 77 2.8 ESE 11 11 6 6 - - 0.0
16/09:00am 25.0 28.0 20.9 78 2.7 SE 6 7 3 4 - - 0.0
16/08:30am 24.6 27.9 20.7 79 2.6 E 4 6 2 3 - - 0.0
16/08:00am 23.4 26.8 20.9 86 1.6 NNE 4 7 2 4 - - 0.0
16/07:30am 22.6 25.3 20.7 89 1.2 NNE 7 11 4 6 - - 0.0
16/07:00am 22.3 24.6 20.6 90 1.1 ENE 9 15 5 8 - - 0.0
16/06:30am 22.2 25.9 20.7 91 1.0 ENE 2 6 1 3 - - 0.0
16/06:00am 22.1 25.0 20.6 91 1.0 NNE 6 7 3 4 - - 0.0
16/05:30am 22.2 24.5 20.7 91 1.0 NE 9 13 5 7 - - 0.0
16/05:00am 22.1 24.4 20.7 92 0.9 NNE 9 13 5 7 - - 0.0
16/04:30am 22.3 23.8 20.6 90 1.1 NE 13 19 7 10 - - 0.0
16/04:00am 22.2 23.7 20.5 90 1.1 ENE 13 17 7 9 - - 0.0
16/03:30am 22.2 23.8 20.7 91 1.0 ENE 13 15 7 8 - - 0.0
16/03:00am 22.4 24.7 20.7 90 1.1 ENE 9 13 5 7 - - 0.0
16/02:30am 22.6 24.3 20.9 90 1.1 NE 13 19 7 10 - - 0.0
16/02:00am 22.7 24.3 20.8 89 1.2 ENE 13 19 7 10 - - 0.0
16/01:30am 22.9 24.6 21.0 89 1.2 ENE 13 17 7 9 - - 0.0
16/01:00am 23.1 25.2 21.0 88 1.4 ENE 11 15 6 8 - - 0.0
16/12:30am 23.3 24.7 21.0 87 1.5 NE 15 20 8 11 - - 0.0
16/12:00am 23.4 24.4 21.1 87 1.5 NE 17 24 9 13 - - 0.0
 
Date/Time
EDT
Temp
°C
App
Temp
°C
Dew
Point
°C
Rel
Hum
%
Delta-T
°C
Wind Press
QNH
hPa
Press
MSL
hPa
Rain since
9am
mm
Dir  Spd
km/h
Gust
km/h
Spd
kts
Gust
kts
15/11:30pm 23.6 24.5 20.9 85 1.8 ENE 17 22 9 12 - - 0.0
15/11:00pm 23.9 26.0 21.0 84 1.9 NE 11 17 6 9 - - 0.0
15/10:30pm 24.3 26.0 21.0 82 2.2 NE 13 19 7 10 - - 0.0
15/10:00pm 24.1 25.1 21.0 83 2.0 NE 17 24 9 13 - - 0.0
15/09:30pm 24.2 24.8 21.1 83 2.0 NE 19 28 10 15 - - 0.0
15/09:00pm 24.4 23.3 21.1 82 2.2 NE 28 37 15 20 - - 0.0

Other Formats:

Comma delimited format used in spreadsheet applications
http://www.bom.gov.au/fwo/IDN60801/IDN60801.94774.axf

JavaScript Object Notation format (JSON) in row-major order
http://www.bom.gov.au/fwo/IDN60801/IDN60801.94774.json